Terminal Aerodrome Forecast
Issued by NWS

Home | Current Version | Previous Version | Text Only | Print | Product List | Glossary Off
Versions: 1 2 3 4 5 6 7 8 9 10 11 12 13

000
FTUS43 KIWX 011139
TAFSBN
TAF
KSBN 011139Z 0112/0212 34009KT P6SM BKN012
      TEMPO 0112/0113 OVC009
     FM011500 34008KT P6SM SCT040
     FM012300 33006KT P6SM SCT250=

USA.gov is the U.S. government's official web portal to all federal, state and local government web resources and services.